Jard del Este, Puerto Rico
Current Conditions -  °F | °C
As of 8:53 PM on Wednesday 17 Dec 2014 (Local Time) from TJNR Reporting Station
Few Clouds Few Clouds  
Wind Chill: 78°   Ceiling: Unl
Heat Index: 80°   Visibility: 10mi
Dew Point: 67°   Wind: 9mph
Humidity: 68%   Direction: 20°NNE
Pressure: 30.07"   Gusts: NA
Location:  18.2147°N, 65.7358°W
Report Text: TJNR 180053Z AUTO 02008KT 10SM FEW033 26/19 A3007 RMK AO2 SLP181 T02560194 $
Loading
Personal Weather Stations






























Interactive Weather Map New forecast layout! Learn more

10-Day Weather Forecast

Advertisements
Track Severe Weather on mobile